Time;durP1;ratioP1;P1;durP2;ratioP2;P2;SDS_P1;SDS_P2;PMS_P1;PMS_P2;Temp;Humidity;BMP_temperature;BMP_pressure;BME280_temperature;BME280_humidity;BME280_pressure;Samples;Min_cycle;Max_cycle;Signal;HPM_P1;HPM_P2
2021/07/01 10:52:03;;;;;;;;;;;;;;;;;;5035085;28;19981;-50
2021/07/01 15:57:22;;;;;;;;;;;;;;;28.51;39.65;97324.06;5042699;28;9442;-48
2021/07/01 15:59:47;;;;;;;;;;;;;;;29.59;37.41;97328.69;5050721;28;9863;-49
2021/07/01 16:02:13;;;;;;;;;;;;;;;29.87;36.48;97333.94;5066245;28;1156;-51
2021/07/01 16:04:38;;;;;;;;;;;;;;;29.16;38.33;97330.25;5057238;28;9733;-51
2021/07/01 16:07:04;;;;;;;;;;;;;;;28.76;38.76;97335.03;5057123;28;3172;-53
2021/07/01 16:09:29;;;;;;;;;;;;;;;28.80;38.12;97331.91;5059059;28;2419;-49
2021/07/01 16:11:54;;;;;;;;;;;;;;;28.30;39.55;97339.38;5057426;28;9723;-54
2021/07/01 16:14:20;;;;;;;;;;;;;;;30.27;35.95;97339.59;5062173;28;9242;-52
2021/07/01 16:17:08;;;;;;;;;;;;;;;28.54;39.17;97349.50;5015666;28;51514;-51
2021/07/01 16:19:33;;;;;;;;;;;;;;;28.30;39.38;97347.31;5007127;28;2488;-52
2021/07/01 16:21:58;;;;;;;;;;;;;;;28.41;39.09;97352.44;5000405;28;2399;-51
2021/07/01 16:24:24;;;;;;;;;;;;;;;29.74;36.58;97352.94;4999233;28;2724;-54
2021/07/01 16:26:49;;;;;;;;;;;;;;;29.66;36.44;97353.69;5002405;28;2385;-53
2021/07/01 16:29:15;;;;;;;;;;;;;;;29.96;36.10;97364.94;4997344;28;2487;-53
2021/07/01 16:31:42;;;;;;;;;;;;;;;30.30;35.65;97368.53;5001591;28;2741;-53
2021/07/01 16:34:07;;;;;;;;;;;;;;;29.86;35.85;97370.34;5002297;28;2480;-53
2021/07/01 16:36:32;;;;;;;;;;;;;;;30.11;35.16;97368.75;5000593;28;2361;-54
2021/07/01 16:38:58;;;;;;;;;;;;;;;30.01;34.70;97363.44;4999822;28;2353;-53
2021/07/01 16:41:23;;;;;;;;;;;;;;;29.85;35.47;97351.84;5000827;28;2377;-52
2021/07/01 16:43:48;;;;;;;;;;;;;;;30.11;35.71;97350.13;5002076;28;2366;-53
2021/07/01 16:46:14;;;;;;;;;;;;;;;29.96;35.94;97355.13;4999105;28;2270;-53
2021/07/01 16:48:41;;;;;;;;;;;;;;;29.78;36.15;97348.97;4998612;28;2189;-53
2021/07/01 16:51:07;;;;;;;;;;;;;;;29.64;36.41;97352.19;4998810;28;2067;-50
2021/07/01 16:53:33;;;;;;;;;;;;;;;29.50;36.63;97344.72;5031085;22;9695;-84
2021/07/01 16:55:58;;;;;;;;;;;;;;;30.43;35.08;97351.34;5038995;28;1894;-84
2021/07/01 16:58:24;;;;;;;;;;;;;;;29.97;35.78;97355.94;5035585;28;1552;-84
2021/07/01 17:00:51;;;;;;;;;;;;;;;30.11;35.85;97359.94;5038826;28;1136;-84
2021/07/01 17:03:19;;;;;;;;;;;;;;;30.18;35.22;97358.31;5037378;28;1584;-84
2021/07/01 17:05:44;;;;;;;;;;;;;;;30.21;35.34;97360.66;5054896;28;1560;-84
2021/07/01 17:08:09;;;;;;;;;;;;;;;30.17;35.48;97353.97;5036779;28;1530;-85
2021/07/01 17:10:35;;;;;;;;;;;;;;;30.50;34.99;97368.34;5039667;28;1121;-84
2021/07/01 17:13:00;;;;;;;;;;;;;;;30.40;35.08;97370.25;5036625;28;1488;-84
2021/07/01 17:15:26;;;;;;;;;;;;;;;30.51;34.90;97362.88;5058822;28;1977;-84
2021/07/01 17:17:51;;;;;;;;;;;;;;;30.29;35.00;97361.56;5057243;28;1675;-84
2021/07/01 17:20:17;;;;;;;;;;;;;;;30.12;35.62;97362.44;5040499;28;1204;-84
2021/07/01 17:22:49;;;;;;;;;;;;;;;29.98;35.72;97365.59;5037362;28;1536;-84
2021/07/01 17:25:14;;;;;;;;;;;;;;;30.12;35.60;97364.25;5039699;28;1282;-85
2021/07/01 17:27:39;;;;;;;;;;;;;;;30.02;35.88;97359.84;5047039;28;1521;-84
2021/07/01 17:30:05;;;;;;;;;;;;;;;30.04;35.54;97370.31;5025783;28;1184;-85
2021/07/01 17:32:30;;;;;;;;;;;;;;;30.26;35.50;97369.84;5025130;28;1563;-85
2021/07/01 17:34:56;;;;;;;;;;;;;;;30.26;35.40;97377.00;5010618;28;1961;-84
2021/07/01 17:37:21;;;;;;;;;;;;;;;30.38;35.11;97374.91;5043928;28;1457;-85
2021/07/01 17:39:47;;;;;;;;;;;;;;;30.14;35.36;97378.22;5040633;28;1255;-85
2021/07/01 17:42:12;;;;;;;;;;;;;;;30.20;35.38;97389.09;5026463;28;1306;-84
2021/07/01 17:44:37;;;;;;;;;;;;;;;30.13;35.54;97389.84;5042820;28;1658;-85
2021/07/01 17:47:03;;;;;;;;;;;;;;;30.27;35.15;97384.00;5043976;28;1164;-84
2021/07/01 17:49:28;;;;;;;;;;;;;;;30.24;35.46;97389.59;5041374;28;1568;-85
2021/07/01 17:51:53;;;;;;;;;;;;;;;30.25;35.09;97386.78;5043443;28;1057;-85
2021/07/01 17:54:19;;;;;;;;;;;;;;;29.90;35.99;97400.09;5042638;28;1469;-84
2021/07/01 17:56:44;;;;;;;;;;;;;;;30.27;35.04;97398.13;5042760;28;1910;-86
2021/07/01 17:59:10;;;;;;;;;;;;;;;30.09;35.73;97409.75;5025831;28;1212;-84
2021/07/01 18:01:35;;;;;;;;;;;;;;;30.33;35.12;97406.47;5044214;28;1314;-84
2021/07/01 18:04:00;;;;;;;;;;;;;;;30.12;35.46;97412.13;5027901;28;1711;-84
2021/07/01 18:06:26;;;;;;;;;;;;;;;30.24;35.18;97413.53;5043897;22;3638;-53
2021/07/01 18:08:51;;;;;;;;;;;;;;;30.26;35.42;97416.91;5022003;28;1705;-54
2021/07/01 18:11:16;;;;;;;;;;;;;;;30.62;34.61;97419.47;5020240;28;1232;-55
2021/07/01 18:13:41;;;;;;;;;;;;;;;29.84;35.89;97416.66;5019957;28;1468;-53
2021/07/01 18:16:06;;;;;;;;;;;;;;;30.35;35.12;97417.81;5020951;28;1926;-54
2021/07/01 18:18:32;;;;;;;;;;;;;;;29.87;35.80;97416.34;5020394;28;1580;-54
2021/07/01 18:20:58;;;;;;;;;;;;;;;30.39;35.04;97411.16;5032282;23;2035;-55
2021/07/01 18:23:23;;;;;;;;;;;;;;;30.09;35.53;97409.75;5004390;28;1557;-56
2021/07/01 18:25:48;;;;;;;;;;;;;;;30.12;35.31;97407.63;5008944;28;1136;-55
2021/07/01 18:28:14;;;;;;;;;;;;;;;30.30;35.01;97402.28;5010532;28;1065;-55
2021/07/01 18:30:39;;;;;;;;;;;;;;;30.26;35.17;97403.59;5000911;28;1740;-56
2021/07/01 18:33:04;;;;;;;;;;;;;;;30.00;35.71;97411.47;5005285;28;1788;-55
2021/07/01 18:35:29;;;;;;;;;;;;;;;29.92;35.58;97401.59;5009147;28;1910;-56
2021/07/01 18:37:55;;;;;;;;;;;;;;;29.95;35.75;97406.63;5009583;28;1403;-56
2021/07/01 18:40:20;;;;;;;;;;;;;;;30.17;35.11;97410.66;5008161;28;1280;-56
2021/07/01 18:42:49;;;;;;;;;;;;;;;30.14;35.47;97410.97;5006624;28;1581;-56
2021/07/01 18:45:14;;;;;;;;;;;;;;;30.26;35.29;97417.75;5008786;28;1030;-56
2021/07/01 18:47:40;;;;;;;;;;;;;;;30.21;35.21;97419.19;5000993;28;1665;-56
2021/07/01 18:50:05;;;;;;;;;;;;;;;29.82;36.02;97426.59;5007465;28;1303;-56
2021/07/01 18:52:30;;;;;;;;;;;;;;;30.15;35.20;97425.94;5004809;28;1395;-55
2021/07/01 18:54:56;;;;;;;;;;;;;;;30.09;35.36;97423.06;4998438;28;1929;-56
2021/07/01 18:57:21;;;;;;;;;;;;;;;30.10;35.29;97420.25;5003521;28;1251;-56
2021/07/01 18:59:46;;;;;;;;;;;;;;;30.02;35.50;97421.00;5006343;28;1397;-55
2021/07/01 19:02:11;;;;;;;;;;;;;;;30.17;35.19;97428.44;5004248;28;1152;-55
2021/07/01 19:04:37;;;;;;;;;;;;;;;30.40;35.02;97426.13;5004000;28;1706;-54
2021/07/01 19:07:02;;;;;;;;;;;;;;;30.35;34.79;97418.63;5001596;28;1501;-55
2021/07/01 19:09:30;;;;;;;;;;;;;;;29.91;35.79;97418.53;5007708;28;1196;-55
2021/07/01 19:11:55;;;;;;;;;;;;;;;29.81;36.14;97422.28;5004774;28;979;-55
2021/07/01 19:14:29;;;;;;;;;;;;;;;30.19;35.28;97419.34;5004520;28;1509;-55
2021/07/01 19:16:54;;;;;;;;;;;;;;;30.24;35.21;97426.84;5005667;28;1942;-54
2021/07/01 19:19:19;;;;;;;;;;;;;;;29.99;35.61;97423.94;5003035;28;2013;-55
2021/07/01 19:21:44;;;;;;;;;;;;;;;30.05;35.69;97425.16;5004114;28;1338;-55
2021/07/01 19:24:09;;;;;;;;;;;;;;;29.83;36.05;97423.78;5005385;28;1168;-55
2021/07/01 19:26:35;;;;;;;;;;;;;;;29.86;35.73;97419.97;5005095;28;1200;-56
2021/07/01 19:29:00;;;;;;;;;;;;;;;29.92;35.70;97422.03;5004309;28;1634;-54
2021/07/01 19:31:25;;;;;;;;;;;;;;;30.15;35.57;97430.44;5005146;28;1356;-54
2021/07/01 19:33:50;;;;;;;;;;;;;;;30.39;35.03;97427.13;5001177;28;1542;-55
2021/07/01 19:36:15;;;;;;;;;;;;;;;29.96;35.81;97434.06;5004572;28;1978;-56
2021/07/01 19:38:41;;;;;;;;;;;;;;;29.80;36.19;97437.41;5004744;28;2073;-55
2021/07/01 19:41:06;;;;;;;;;;;;;;;29.96;35.88;97436.72;5002418;28;1302;-56
2021/07/01 19:43:31;;;;;;;;;;;;;;;30.11;35.77;97437.06;5006049;28;1121;-55
2021/07/01 19:45:57;;;;;;;;;;;;;;;29.97;35.49;97447.19;5001101;28;1602;-56
2021/07/01 19:48:23;;;;;;;;;;;;;;;29.69;35.99;97435.75;5005748;28;1561;-55
2021/07/01 19:50:49;;;;;;;;;;;;;;;30.05;35.72;97441.13;5004289;28;1432;-55
2021/07/01 19:53:14;;;;;;;;;;;;;;;29.94;35.82;97444.00;5004377;28;1204;-54
2021/07/01 19:55:40;;;;;;;;;;;;;;;30.03;35.70;97445.75;5004311;28;1982;-54
2021/07/01 19:58:07;;;;;;;;;;;;;;;29.83;35.96;97441.56;4996781;28;1647;-54
2021/07/01 20:00:32;;;;;;;;;;;;;;;29.81;35.96;97441.72;4993234;28;1292;-56
2021/07/01 20:02:57;;;;;;;;;;;;;;;29.92;35.95;97444.16;4992600;28;1700;-55
2021/07/01 20:05:23;;;;;;;;;;;;;;;30.13;35.56;97443.06;4997218;28;1645;-53
2021/07/01 20:07:49;;;;;;;;;;;;;;;29.73;36.20;97446.94;5001569;28;1061;-55
2021/07/01 20:10:14;;;;;;;;;;;;;;;30.08;35.65;97445.28;5001017;28;1363;-55
2021/07/01 20:12:39;;;;;;;;;;;;;;;30.05;35.71;97440.28;5003069;28;1184;-54
2021/07/01 20:15:04;;;;;;;;;;;;;;;29.73;36.16;97446.94;5000334;28;1944;-55
2021/07/01 20:17:29;;;;;;;;;;;;;;;29.84;36.13;97446.72;5003841;28;1625;-53
2021/07/01 20:19:55;;;;;;;;;;;;;;;29.81;36.00;97447.03;4998503;28;1306;-54
2021/07/01 20:22:20;;;;;;;;;;;;;;;29.73;36.03;97445.13;5003208;28;1264;-55
2021/07/01 20:24:45;;;;;;;;;;;;;;;29.91;36.18;97452.28;5000690;28;1236;-54
2021/07/01 20:27:10;;;;;;;;;;;;;;;29.94;35.72;97444.00;4999096;28;1470;-56
2021/07/01 20:29:36;;;;;;;;;;;;;;;29.81;36.23;97441.72;5005055;28;1311;-53
2021/07/01 20:32:01;;;;;;;;;;;;;;;29.85;35.95;97444.91;5001741;28;1181;-56
2021/07/01 20:34:27;;;;;;;;;;;;;;;30.12;35.47;97442.22;4997014;28;1566;-54
2021/07/01 20:36:52;;;;;;;;;;;;;;;29.85;36.02;97439.59;4998257;28;1918;-55
2021/07/01 20:39:17;;;;;;;;;;;;;;;30.24;35.54;97440.16;5003726;28;963;-55
2021/07/01 20:41:44;;;;;;;;;;;;;;;29.79;36.30;97446.34;5003115;28;1502;-55
2021/07/01 20:44:09;;;;;;;;;;;;;;;30.04;35.62;97439.44;5001337;28;1151;-54
2021/07/01 20:46:34;;;;;;;;;;;;;;;30.00;35.80;97441.56;5002104;28;1025;-56
2021/07/01 20:48:59;;;;;;;;;;;;;;;29.91;36.04;97438.97;5000300;28;1609;-56
2021/07/01 20:51:26;;;;;;;;;;;;;;;29.76;36.09;97443.97;5004714;28;1299;-55
2021/07/01 20:53:51;;;;;;;;;;;;;;;29.56;36.56;97450.41;5002719;28;1062;-56
2021/07/01 20:56:16;;;;;;;;;;;;;;;30.15;35.48;97441.91;4997587;28;1969;-55
2021/07/01 20:58:41;;;;;;;;;;;;;;;30.04;35.50;97450.09;4997609;28;1110;-55
2021/07/01 21:01:07;;;;;;;;;;;;;;;30.32;35.04;97444.69;4995744;28;1362;-56
2021/07/01 21:03:32;;;;;;;;;;;;;;;29.72;36.19;97446.13;4994626;28;1558;-54
2021/07/01 21:05:57;;;;;;;;;;;;;;;29.94;35.96;97444.84;4998702;28;1569;-56
2021/07/01 21:08:23;;;;;;;;;;;;;;;30.09;35.76;97453.13;4999175;28;1326;-53
2021/07/01 21:10:48;;;;;;;;;;;;;;;30.44;34.76;97444.31;4997829;28;1687;-55
2021/07/01 21:13:16;;;;;;;;;;;;;;;30.10;35.53;97446.00;4999621;28;1097;-55
2021/07/01 21:15:43;;;;;;;;;;;;;;;29.97;35.94;97449.03;5000404;28;1963;-55
2021/07/01 21:18:08;;;;;;;;;;;;;;;30.01;35.73;97442.41;4999591;28;1546;-55
2021/07/01 21:20:33;;;;;;;;;;;;;;;30.13;35.45;97451.88;5002668;28;1309;-55
2021/07/01 21:22:59;;;;;;;;;;;;;;;30.16;35.49;97448.88;5004363;28;1667;-55
2021/07/01 21:25:25;;;;;;;;;;;;;;;30.37;34.88;97440.59;5003915;28;1633;-55
2021/07/01 21:27:50;;;;;;;;;;;;;;;30.39;35.04;97445.75;5001911;28;1153;-55
2021/07/01 21:30:16;;;;;;;;;;;;;;;30.04;35.50;97444.78;5006181;28;1288;-54
2021/07/01 21:32:41;;;;;;;;;;;;;;;29.87;35.99;97448.25;5002481;28;1622;-55
2021/07/01 21:35:06;;;;;;;;;;;;;;;30.28;34.97;97450.34;5005051;28;1961;-55
2021/07/01 21:37:32;;;;;;;;;;;;;;;30.09;35.36;97449.66;5004617;28;1193;-55
2021/07/01 21:39:57;;;;;;;;;;;;;;;29.90;35.62;97451.44;5002511;28;1350;-56
2021/07/01 21:42:23;;;;;;;;;;;;;;;30.61;34.49;97450.59;5006250;28;1224;-53
2021/07/01 21:44:49;;;;;;;;;;;;;;;30.02;35.60;97444.94;5002335;28;1705;-55
2021/07/01 21:47:14;;;;;;;;;;;;;;;30.23;35.09;97444.63;5003645;28;1231;-55
2021/07/01 21:49:40;;;;;;;;;;;;;;;29.77;36.04;97440.34;5000261;28;1600;-56
2021/07/01 21:52:05;;;;;;;;;;;;;;;30.39;35.06;97440.44;5005803;28;1113;-55
2021/07/01 21:54:30;;;;;;;;;;;;;;;30.10;35.67;97432.69;5004438;28;1180;-55
2021/07/01 21:56:55;;;;;;;;;;;;;;;30.18;35.18;97436.28;5003530;28;1906;-55
2021/07/01 21:59:21;;;;;;;;;;;;;;;30.26;35.17;97435.53;5002196;28;1138;-55
2021/07/01 22:01:46;;;;;;;;;;;;;;;30.21;35.15;97433.31;5006582;28;1189;-54
2021/07/01 22:04:11;;;;;;;;;;;;;;;30.29;35.12;97443.19;5005184;28;1602;-55
2021/07/01 22:06:37;;;;;;;;;;;;;;;30.13;35.38;97440.41;5004489;28;1665;-56
2021/07/01 22:09:03;;;;;;;;;;;;;;;30.32;34.89;97444.69;5006410;28;1255;-55
2021/07/01 22:11:28;;;;;;;;;;;;;;;30.45;34.72;97447.81;5005339;28;1280;-55
2021/07/01 22:13:53;;;;;;;;;;;;;;;30.16;35.50;97450.72;5007817;28;1130;-55
2021/07/01 22:16:19;;;;;;;;;;;;;;;29.86;35.79;97444.78;5004138;28;1914;-55
2021/07/01 22:18:44;;;;;;;;;;;;;;;30.16;35.45;97440.91;4999733;28;1667;-54
2021/07/01 22:21:10;;;;;;;;;;;;;;;29.91;35.68;97447.78;5004825;28;1268;-55
2021/07/01 22:23:36;;;;;;;;;;;;;;;30.07;35.21;97438.31;5007991;28;1264;-55
2021/07/01 22:26:02;;;;;;;;;;;;;;;30.28;34.89;97441.53;5006528;28;1200;-53
2021/07/01 22:28:27;;;;;;;;;;;;;;;30.37;34.61;97442.41;5004869;28;1626;-55
2021/07/01 22:30:54;;;;;;;;;;;;;;;29.96;35.56;97432.22;5004150;28;1310;-55
2021/07/01 22:33:20;;;;;;;;;;;;;;;30.23;35.11;97430.50;5005165;28;1600;-55
2021/07/01 22:35:46;;;;;;;;;;;;;;;30.44;34.69;97433.66;5001079;28;1906;-52
2021/07/01 22:38:11;;;;;;;;;;;;;;;29.91;35.62;97433.66;5006422;28;983;-56
2021/07/01 22:40:37;;;;;;;;;;;;;;;30.36;34.88;97436.28;5005659;28;1280;-55
2021/07/01 22:43:03;;;;;;;;;;;;;;;30.37;34.92;97427.28;5003396;28;1542;-52
2021/07/01 22:45:28;;;;;;;;;;;;;;;30.03;35.55;97430.63;5007997;28;1250;-55
2021/07/01 22:47:53;;;;;;;;;;;;;;;29.95;35.64;97427.91;5003101;28;1570;-55
2021/07/01 22:50:19;;;;;;;;;;;;;;;30.17;35.19;97426.63;5006154;28;1381;-55
2021/07/01 22:52:44;;;;;;;;;;;;;;;30.14;35.22;97424.28;5005081;28;1109;-55
2021/07/01 22:55:10;;;;;;;;;;;;;;;30.07;35.50;97430.31;5006636;28;1902;-55
2021/07/01 22:57:35;;;;;;;;;;;;;;;30.25;34.94;97426.69;5003235;28;1023;-53
2021/07/01 23:00:00;;;;;;;;;;;;;;;30.12;35.25;97423.59;5005500;28;2336;-56
2021/07/01 23:02:25;;;;;;;;;;;;;;;29.83;35.53;97428.28;5005131;28;1239;-55
2021/07/01 23:04:50;;;;;;;;;;;;;;;29.99;35.34;97431.91;5004484;28;1843;-55
2021/07/01 23:07:16;;;;;;;;;;;;;;;30.13;35.06;97432.41;5004533;28;1665;-54
2021/07/01 23:09:41;;;;;;;;;;;;;;;30.15;35.31;97425.94;5005387;28;1283;-55
2021/07/01 23:12:06;;;;;;;;;;;;;;;30.26;34.89;97424.88;4997893;28;1696;-52
2021/07/01 23:14:31;;;;;;;;;;;;;;;30.04;35.22;97428.81;5005951;28;1152;-55
2021/07/01 23:16:56;;;;;;;;;;;;;;;29.86;35.42;97427.97;5006056;28;1969;-55
2021/07/01 23:19:22;;;;;;;;;;;;;;;29.93;35.43;97437.00;5000645;28;1594;-55
2021/07/01 23:21:47;;;;;;;;;;;;;;;30.32;34.79;97434.88;5005256;28;1166;-54
2021/07/01 23:24:14;;;;;;;;;;;;;;;30.02;35.24;97426.31;4942759;28;1241;-56
2021/07/01 23:26:39;;;;;;;;;;;;;;;29.82;35.71;97426.59;5009356;28;1101;-56
2021/07/01 23:29:04;;;;;;;;;;;;;;;29.92;35.24;97430.84;5000689;28;2012;-55
2021/07/01 23:31:30;;;;;;;;;;;;;;;29.88;35.56;97433.97;5008878;28;1383;-56
2021/07/01 23:33:55;;;;;;;;;;;;;;;29.90;35.53;97424.03;5004700;28;1518;-55
2021/07/01 23:36:20;;;;;;;;;;;;;;;29.96;35.27;97421.59;5009654;28;1967;-55
2021/07/01 23:38:45;;;;;;;;;;;;;;;30.02;35.28;97421.00;5008503;28;1339;-52
2021/07/01 23:41:10;;;;;;;;;;;;;;;29.92;35.41;97420.22;5006928;28;1316;-55
2021/07/01 23:43:36;;;;;;;;;;;;;;;29.74;35.54;97422.88;5004748;28;1578;-54
2021/07/01 23:46:01;;;;;;;;;;;;;;;30.28;34.85;97421.06;5009310;28;1137;-56
2021/07/01 23:48:26;;;;;;;;;;;;;;;30.07;35.23;97420.53;5006237;28;1602;-53
2021/07/01 23:50:51;;;;;;;;;;;;;;;30.32;34.91;97418.94;5007335;28;1300;-56
2021/07/01 23:53:16;;;;;;;;;;;;;;;30.13;35.14;97413.78;5006789;28;1264;-56
2021/07/01 23:55:42;;;;;;;;;;;;;;;30.15;35.24;97417.97;5007596;28;1910;-56
2021/07/01 23:58:07;;;;;;;;;;;;;;;30.41;34.59;97417.16;5009319;28;1073;-55
